Juan_de_la_cosa — ECJE — position and weather

sailwx.info

Track history (hours):
 
Tides and Currents Weather Stations Pressure Air Temp Water Temp Dewpoint Dewpoint Depression Visibility Wind Speed Wind Dir Waves Ship Positions

Juan_de_la_cosa

Last reported at 2017-Jun-12 14:52 UTC. Time now 2017-Jun-26 19:14 UTC.
Position N 38°43' W 026°59'.
Warning: this ship's position is 14 days out of date.

Length 75 m; draft 4.5 m.

Type: SAR. MMSI: 224612000.

Date/timePositionNaut miles runAvg speedWind from/ knotsBaromVisibWave heightAir tempDewpointWater temp
2017-Jun-12 14:52N 38°43' W 026°59'1 1.1
2017-Jun-12 13:53N 38°44' W 026°59'3 4.3
2017-Jun-12 13:07N 38°41' W 026°60'0 3.8
2017-Jun-12 13:01N 38°41' W 026°60'3 4.9
2017-Jun-12 12:27N 38°44' W 026°60'4 2.4
2017-Jun-12 10:53N 38°40' W 026°60'2 4.9
2017-Jun-12 10:30N 38°42' W 026°60'3 5.1
2017-Jun-12 10:00N 38°45' W 026°60'4 2.6
2017-Jun-12 08:27N 38°40' W 026°60'3 6.0
2017-Jun-12 08:00N 38°43' W 026°59'1 1.0
2017-Jun-12 07:27N 38°44' W 026°59'0 0.2
2017-Jun-12 07:00N 38°44' W 026°59'10 7.6
2017-Jun-12 05:39N 38°50' W 026°48'28 8.4
2017-Jun-12 02:18N 39°05' W 026°18'3 8.6
2017-Jun-12 01:54N 39°07' W 026°15'5 8.8
2017-Jun-12 01:22N 39°10' W 026°10'3 8.7
2017-Jun-12 01:00N 39°12' W 026°06'4 8.7
2017-Jun-12 00:30N 39°14' W 026°01'4 8.8
2017-Jun-11 23:59N 39°16' W 025°57'4 8.9
2017-Jun-11 23:30N 39°19' W 025°52'5 9.0
2017-Jun-11 23:00N 39°21' W 025°47'4 8.7
2017-Jun-11 22:30N 39°24' W 025°42'8 8.6
2017-Jun-11 21:33N 39°28' W 025°33'1 8.6
2017-Jun-11 21:22N 39°29' W 025°32'9 8.9
2017-Jun-11 20:25N 39°34' W 025°23'4 8.8
2017-Jun-11 19:55N 39°36' W 025°18'  
2017-Jun-05 15:29N 43°41' W 006°10'4 2.3
2017-Jun-05 13:56N 43°42' W 006°06'11 5.3
2017-Jun-05 11:49N 43°45' W 005°51'2 5.4
2017-Jun-05 11:28N 43°45' W 005°48'3 5.2
2017-Jun-05 10:50N 43°44' W 005°44'2 5.2
2017-Jun-05 10:30N 43°44' W 005°41'3 5.2
2017-Jun-05 09:59N 43°43' W 005°38'3 4.9
2017-Jun-05 09:23N 43°42' W 005°34'2 4.7
2017-Jun-05 09:00N 43°42' W 005°32'2 4.9
2017-Jun-05 08:30N 43°41' W 005°28'3 5.2
2017-Jun-05 08:00N 43°41' W 005°25'3 5.1
2017-Jun-05 07:30N 43°40' W 005°21'3 5.2
2017-Jun-05 07:00N 43°39' W 005°18'3 5.5
2017-Jun-05 06:29N 43°38' W 005°14'3 5.7
2017-Jun-05 06:00N 43°38' W 005°11'3 5.7
2017-Jun-05 05:30N 43°37' W 005°07'3 5.9
2017-Jun-05 04:59N 43°36' W 005°02'3 6.1
2017-Jun-05 04:27N 43°36' W 004°58'3 6.0
2017-Jun-05 04:00N 43°35' W 004°55'  
Track history (hours):
 
Tides and Currents Weather Stations Pressure Air Temp Water Temp Dewpoint Dewpoint Depression Visibility Wind Speed Wind Dir Waves Ship Positions

Juan_de_la_cosa

Last reported at 2017-Jun-12 14:52 UTC. Time now 2017-Jun-26 19:14 UTC.
Position N 38°43' W 026°59'.
Warning: this ship's position is 14 days out of date.

Length 75 m; draft 4.5 m.

Type: SAR. MMSI: 224612000.

Date/timePositionNaut miles runAvg speedWind from/ knotsBaromVisibWave heightAir tempDewpointWater temp
2017-Jun-12 14:52N 38°43' W 026°59'1 1.1
2017-Jun-12 13:53N 38°44' W 026°59'3 4.3
2017-Jun-12 13:07N 38°41' W 026°60'0 3.8
2017-Jun-12 13:01N 38°41' W 026°60'3 4.9
2017-Jun-12 12:27N 38°44' W 026°60'4 2.4
2017-Jun-12 10:53N 38°40' W 026°60'2 4.9
2017-Jun-12 10:30N 38°42' W 026°60'3 5.1
2017-Jun-12 10:00N 38°45' W 026°60'4 2.6
2017-Jun-12 08:27N 38°40' W 026°60'3 6.0
2017-Jun-12 08:00N 38°43' W 026°59'1 1.0
2017-Jun-12 07:27N 38°44' W 026°59'0 0.2
2017-Jun-12 07:00N 38°44' W 026°59'10 7.6
2017-Jun-12 05:39N 38°50' W 026°48'28 8.4
2017-Jun-12 02:18N 39°05' W 026°18'3 8.6
2017-Jun-12 01:54N 39°07' W 026°15'5 8.8
2017-Jun-12 01:22N 39°10' W 026°10'3 8.7
2017-Jun-12 01:00N 39°12' W 026°06'4 8.7
2017-Jun-12 00:30N 39°14' W 026°01'4 8.8
2017-Jun-11 23:59N 39°16' W 025°57'4 8.9
2017-Jun-11 23:30N 39°19' W 025°52'5 9.0
2017-Jun-11 23:00N 39°21' W 025°47'4 8.7
2017-Jun-11 22:30N 39°24' W 025°42'8 8.6
2017-Jun-11 21:33N 39°28' W 025°33'1 8.6
2017-Jun-11 21:22N 39°29' W 025°32'9 8.9
2017-Jun-11 20:25N 39°34' W 025°23'4 8.8
2017-Jun-11 19:55N 39°36' W 025°18'  
2017-Jun-05 15:29N 43°41' W 006°10'4 2.3
2017-Jun-05 13:56N 43°42' W 006°06'11 5.3
2017-Jun-05 11:49N 43°45' W 005°51'2 5.4
2017-Jun-05 11:28N 43°45' W 005°48'3 5.2
2017-Jun-05 10:50N 43°44' W 005°44'2 5.2
2017-Jun-05 10:30N 43°44' W 005°41'3 5.2
2017-Jun-05 09:59N 43°43' W 005°38'3 4.9
2017-Jun-05 09:23N 43°42' W 005°34'2 4.7
2017-Jun-05 09:00N 43°42' W 005°32'2 4.9
2017-Jun-05 08:30N 43°41' W 005°28'3 5.2
2017-Jun-05 08:00N 43°41' W 005°25'3 5.1
2017-Jun-05 07:30N 43°40' W 005°21'3 5.2
2017-Jun-05 07:00N 43°39' W 005°18'3 5.5
2017-Jun-05 06:29N 43°38' W 005°14'3 5.7
2017-Jun-05 06:00N 43°38' W 005°11'3 5.7
2017-Jun-05 05:30N 43°37' W 005°07'3 5.9
2017-Jun-05 04:59N 43°36' W 005°02'3 6.1
2017-Jun-05 04:27N 43°36' W 004°58'3 6.0
2017-Jun-05 04:00N 43°35' W 004°55'  

Dump ship's entire track history